Time;durP1;ratioP1;P1;durP2;ratioP2;P2;SDS_P1;SDS_P2;PMS_P1;PMS_P2;Temp;Humidity;BMP_temperature;BMP_pressure;BME280_temperature;BME280_humidity;BME280_pressure;Samples;Min_cycle;Max_cycle;Signal;HPM_P1;HPM_P2
2023/10/24 00:02:13;;;;;;;0.00;0.00;;;;;;;;;;5005958;28;20572;-68
2023/10/24 00:04:39;;;;;;;0.00;0.00;;;;;;;;;;4990763;28;20649;-68
2023/10/24 00:07:05;;;;;;;0.00;0.00;;;;;;;;;;4986905;28;20152;-68
2023/10/24 00:09:31;;;;;;;0.00;0.00;;;;;;;;;;4980693;28;20054;-68
2023/10/24 00:11:57;;;;;;;0.00;0.00;;;;;;;;;;4989114;28;20476;-68
2023/10/24 00:14:23;;;;;;;0.00;0.00;;;;;;;;;;4982865;28;20818;-68
2023/10/24 00:16:49;;;;;;;0.00;0.00;;;;;;;;;;4989681;28;20038;-67
2023/10/24 00:19:15;;;;;;;0.00;0.00;;;;;;;;;;4985880;28;20034;-68
2023/10/24 00:21:41;;;;;;;0.00;0.00;;;;;;;;;;4986473;28;20049;-68
2023/10/24 00:24:07;;;;;;;0.00;0.00;;;;;;;;;;4988407;28;20096;-68
2023/10/24 00:26:33;;;;;;;0.00;0.00;;;;;;;;;;4981966;28;20042;-68
2023/10/24 00:28:59;;;;;;;0.00;0.00;;;;;;;;;;4982428;28;20454;-68
2023/10/24 00:31:25;;;;;;;0.00;0.00;;;;;;;;;;4981723;28;20034;-68
2023/10/24 00:33:51;;;;;;;0.00;0.00;;;;;;;;;;4995569;28;20042;-68
2023/10/24 00:36:17;;;;;;;0.00;0.00;;;;;;;;;;4986014;28;20957;-68
2023/10/24 00:38:42;;;;;;;0.00;0.00;;;;;;;;;;4984079;28;20692;-67
2023/10/24 00:41:08;;;;;;;0.00;0.00;;;;;;;;;;4985353;28;20038;-68
2023/10/24 00:43:34;;;;;;;0.00;0.00;;;;;;;;;;4987289;28;20042;-68
2023/10/24 00:46:00;;;;;;;0.00;0.00;;;;;;;;;;4987096;28;20347;-67
2023/10/24 00:48:28;;;;;;;0.00;0.00;;;;;;;;;;4986167;28;20042;-68
2023/10/24 00:50:54;;;;;;;0.00;0.00;;;;;;;;;;4992289;28;20041;-67
2023/10/24 00:53:35;;;;;;;0.00;0.00;;;;;;;;;;4981986;28;20407;-68
2023/10/24 00:56:02;;;;;;;0.00;0.00;;;;;;;;;;4980091;28;20035;-68
2023/10/24 00:58:28;;;;;;;0.00;0.00;;;;;;;;;;4985650;28;20035;-69
2023/10/24 01:00:56;;;;;;;0.00;0.00;;;;;;;;;;4982808;28;20046;-69
2023/10/24 01:03:22;;;;;;;0.00;0.00;;;;;;;;;;5002870;28;20038;-70
2023/10/24 01:05:48;;;;;;;0.00;0.00;;;;;;;;;;4991085;28;20508;-69
2023/10/24 01:08:14;;;;;;;0.00;0.00;;;;;;;;;;4987471;28;20046;-69
2023/10/24 01:10:40;;;;;;;0.00;0.00;;;;;;;;;;4989183;28;20180;-69
2023/10/24 01:13:06;;;;;;;0.00;0.00;;;;;;;;;;4987853;28;20508;-69
2023/10/24 01:15:33;;;;;;;0.00;0.00;;;;;;;;;;4986025;28;20100;-70
2023/10/24 01:17:59;;;;;;;0.00;0.00;;;;;;;;;;4987640;28;20357;-69
2023/10/24 01:20:25;;;;;;;0.00;0.00;;;;;;;;;;4990317;28;20042;-69
2023/10/24 01:22:51;;;;;;;0.00;0.00;;;;;;;;;;4989090;28;20038;-69
2023/10/24 01:25:18;;;;;;;0.00;0.00;;;;;;;;;;4983281;28;20045;-69
2023/10/24 01:27:44;;;;;;;0.00;0.00;;;;;;;;;;4985974;28;20042;-70
2023/10/24 01:30:11;;;;;;;0.00;0.00;;;;;;;;;;4984023;28;20046;-69
2023/10/24 01:32:37;;;;;;;0.00;0.00;;;;;;;;;;4986757;28;20038;-69
2023/10/24 01:35:03;;;;;;;0.00;0.00;;;;;;;;;;4990314;28;20039;-69
2023/10/24 01:37:29;;;;;;;0.00;0.00;;;;;;;;;;4992629;28;20061;-71
2023/10/24 01:39:55;;;;;;;0.00;0.00;;;;;;;;;;4988368;28;20044;-69
2023/10/24 01:42:21;;;;;;;0.00;0.00;;;;;;;;;;4991017;28;20050;-69
2023/10/24 01:44:47;;;;;;;0.00;0.00;;;;;;;;;;4991280;28;20065;-70
2023/10/24 01:47:13;;;;;;;0.00;0.00;;;;;;;;;;4984924;28;20042;-70
2023/10/24 01:49:39;;;;;;;0.00;0.00;;;;;;;;;;4982939;28;20398;-69
2023/10/24 01:52:05;;;;;;;0.00;0.00;;;;;;;;;;4982744;28;20438;-70
2023/10/24 01:54:31;;;;;;;0.00;0.00;;;;;;;;;;4982070;28;20043;-69
2023/10/24 01:56:57;;;;;;;0.00;0.00;;;;;;;;;;4982790;28;20924;-69
2023/10/24 01:59:23;;;;;;;0.00;0.00;;;;;;;;;;4982128;28;20500;-70
2023/10/24 02:01:49;;;;;;;0.00;0.00;;;;;;;;;;4987002;28;20042;-70
2023/10/24 02:04:14;;;;;;;0.00;0.00;;;;;;;;;;4989841;28;20034;-69
2023/10/24 02:06:40;;;;;;;0.00;0.00;;;;;;;;;;4982455;28;20034;-69
2023/10/24 02:09:07;;;;;;;0.00;0.00;;;;;;;;;;4988021;28;20349;-69
2023/10/24 02:11:33;;;;;;;0.00;0.00;;;;;;;;;;4986775;28;20141;-70
2023/10/24 02:13:59;;;;;;;0.00;0.00;;;;;;;;;;4982431;28;20033;-69
2023/10/24 02:16:25;;;;;;;0.00;0.00;;;;;;;;;;4986742;28;20113;-70
2023/10/24 02:18:51;;;;;;;0.00;0.00;;;;;;;;;;4981968;28;20410;-69
2023/10/24 02:21:17;;;;;;;0.00;0.00;;;;;;;;;;4985886;28;20041;-70
2023/10/24 02:23:43;;;;;;;0.00;0.00;;;;;;;;;;4985205;28;20034;-70
2023/10/24 02:26:15;;;;;;;0.00;0.00;;;;;;;;;;4984894;28;20042;-69
2023/10/24 02:28:42;;;;;;;0.00;0.00;;;;;;;;;;4987194;28;20053;-70
2023/10/24 02:31:08;;;;;;;0.00;0.00;;;;;;;;;;4977502;28;20050;-70
2023/10/24 02:33:34;;;;;;;0.00;0.00;;;;;;;;;;4982466;28;20092;-70
2023/10/24 02:36:07;;;;;;;0.00;0.00;;;;;;;;;;4980803;28;20809;-70
2023/10/24 02:38:33;;;;;;;0.00;0.00;;;;;;;;;;5016208;28;20478;-70
2023/10/24 02:40:59;;;;;;;0.00;0.00;;;;;;;;;;5005607;28;20034;-70
2023/10/24 02:43:25;;;;;;;0.00;0.00;;;;;;;;;;5008127;28;20102;-70
2023/10/24 02:45:51;;;;;;;0.00;0.00;;;;;;;;;;5009146;28;20512;-70
2023/10/24 02:48:17;;;;;;;0.00;0.00;;;;;;;;;;5000093;28;20439;-70
2023/10/24 02:50:43;;;;;;;0.00;0.00;;;;;;;;;;5000166;28;20149;-70
2023/10/24 02:53:09;;;;;;;0.00;0.00;;;;;;;;;;4983101;28;20038;-69
2023/10/24 02:55:35;;;;;;;0.00;0.00;;;;;;;;;;4979532;28;20809;-70
2023/10/24 02:58:01;;;;;;;0.00;0.00;;;;;;;;;;4981347;28;20132;-69
2023/10/24 03:00:28;;;;;;;0.00;0.00;;;;;;;;;;4980338;28;20050;-70
2023/10/24 03:02:54;;;;;;;0.00;0.00;;;;;;;;;;4984668;28;20112;-70
2023/10/24 03:05:21;;;;;;;0.00;0.00;;;;;;;;;;4979036;28;20042;-70
2023/10/24 03:07:47;;;;;;;0.00;0.00;;;;;;;;;;4981560;28;20130;-70
2023/10/24 03:10:13;;;;;;;0.00;0.00;;;;;;;;;;4984945;28;20117;-70
2023/10/24 03:12:39;;;;;;;0.00;0.00;;;;;;;;;;4989093;28;20045;-70
2023/10/24 03:15:05;;;;;;;0.00;0.00;;;;;;;;;;4981751;28;20397;-70
2023/10/24 03:17:31;;;;;;;0.00;0.00;;;;;;;;;;4987689;28;20035;-70
2023/10/24 03:19:57;;;;;;;0.00;0.00;;;;;;;;;;4983761;28;20508;-70
2023/10/24 03:22:23;;;;;;;0.00;0.00;;;;;;;;;;4983963;28;21148;-70
2023/10/24 03:24:49;;;;;;;0.00;0.00;;;;;;;;;;4978668;28;20038;-70
2023/10/24 03:27:17;;;;;;;0.00;0.00;;;;;;;;;;4982091;28;20145;-69
2023/10/24 03:29:43;;;;;;;0.00;0.00;;;;;;;;;;4982444;28;20034;-70
2023/10/24 03:32:09;;;;;;;0.00;0.00;;;;;;;;;;4980026;28;20038;-70
2023/10/24 03:34:36;;;;;;;0.00;0.00;;;;;;;;;;4996656;28;20520;-70
2023/10/24 03:37:02;;;;;;;0.00;0.00;;;;;;;;;;4989911;28;20446;-69
2023/10/24 03:39:28;;;;;;;0.00;0.00;;;;;;;;;;4987680;28;20516;-70
2023/10/24 03:41:54;;;;;;;0.00;0.00;;;;;;;;;;4991779;28;20049;-69
2023/10/24 03:44:22;;;;;;;0.00;0.00;;;;;;;;;;4988748;28;20143;-70
2023/10/24 03:46:48;;;;;;;0.00;0.00;;;;;;;;;;4982450;28;20042;-70
2023/10/24 03:49:14;;;;;;;0.00;0.00;;;;;;;;;;4981576;28;20078;-70
2023/10/24 03:51:40;;;;;;;0.00;0.00;;;;;;;;;;4981172;28;20115;-70
2023/10/24 03:54:06;;;;;;;0.00;0.00;;;;;;;;;;4976694;28;20038;-70
2023/10/24 03:56:32;;;;;;;0.00;0.00;;;;;;;;;;4984930;28;20400;-70
2023/10/24 03:58:59;;;;;;;0.00;0.00;;;;;;;;;;4980991;28;20037;-70
2023/10/24 04:01:25;;;;;;;0.00;0.00;;;;;;;;;;4979094;28;20383;-70
2023/10/24 04:03:52;;;;;;;0.00;0.00;;;;;;;;;;4978940;28;20043;-70
2023/10/24 04:06:18;;;;;;;0.00;0.00;;;;;;;;;;4978976;28;20023;-70
2023/10/24 04:08:44;;;;;;;0.00;0.00;;;;;;;;;;4977563;28;20054;-69
2023/10/24 04:11:16;;;;;;;0.00;0.00;;;;;;;;;;4979239;28;20066;-69
2023/10/24 04:13:43;;;;;;;0.00;0.00;;;;;;;;;;4983619;28;20054;-70
2023/10/24 04:16:09;;;;;;;0.00;0.00;;;;;;;;;;4985691;28;20044;-69
2023/10/24 04:18:35;;;;;;;0.00;0.00;;;;;;;;;;4997834;28;20028;-70
2023/10/24 04:21:01;;;;;;;0.00;0.00;;;;;;;;;;4987247;28;20056;-70
2023/10/24 04:23:27;;;;;;;0.00;0.00;;;;;;;;;;4978591;28;20045;-70
2023/10/24 04:25:53;;;;;;;0.00;0.00;;;;;;;;;;4975461;28;20784;-69
2023/10/24 04:28:19;;;;;;;0.00;0.00;;;;;;;;;;4982246;28;20046;-70
2023/10/24 04:30:44;;;;;;;0.00;0.00;;;;;;;;;;4975326;28;20076;-70
2023/10/24 04:33:10;;;;;;;0.00;0.00;;;;;;;;;;4968046;28;20113;-70
2023/10/24 04:35:47;;;;;;;0.00;0.00;;;;;;;;;;4984495;28;20041;-69
2023/10/24 04:38:16;;;;;;;0.00;0.00;;;;;;;;;;4976375;28;20038;-70
2023/10/24 04:40:42;;;;;;;0.00;0.00;;;;;;;;;;4982353;28;20676;-70
2023/10/24 04:43:09;;;;;;;0.00;0.00;;;;;;;;;;4989094;28;20152;-69
2023/10/24 04:45:35;;;;;;;0.00;0.00;;;;;;;;;;4988434;28;20564;-70
2023/10/24 04:48:02;;;;;;;0.00;0.00;;;;;;;;;;4985844;28;20547;-70
2023/10/24 04:50:28;;;;;;;0.00;0.00;;;;;;;;;;4990755;28;20560;-69
2023/10/24 04:52:54;;;;;;;0.00;0.00;;;;;;;;;;4984624;28;20122;-69
2023/10/24 04:55:21;;;;;;;0.00;0.00;;;;;;;;;;4981816;28;20524;-70
2023/10/24 04:57:47;;;;;;;0.00;0.00;;;;;;;;;;4989428;28;20057;-70
2023/10/24 05:00:13;;;;;;;0.00;0.00;;;;;;;;;;4985547;28;20043;-70
2023/10/24 05:02:40;;;;;;;0.00;0.00;;;;;;;;;;4971389;28;20053;-70
2023/10/24 05:05:06;;;;;;;0.00;0.00;;;;;;;;;;4975443;28;20046;-70
2023/10/24 05:07:32;;;;;;;0.00;0.00;;;;;;;;;;4978311;28;20038;-70
2023/10/24 05:09:59;;;;;;;0.00;0.00;;;;;;;;;;4979347;28;20103;-70
2023/10/24 05:12:24;;;;;;;0.00;0.00;;;;;;;;;;4979017;28;20050;-70
2023/10/24 05:14:51;;;;;;;0.00;0.00;;;;;;;;;;4978258;28;20049;-70
2023/10/24 05:17:17;;;;;;;0.00;0.00;;;;;;;;;;4977766;28;20038;-70
2023/10/24 05:19:43;;;;;;;0.00;0.00;;;;;;;;;;4978023;28;20034;-71
2023/10/24 05:22:10;;;;;;;0.00;0.00;;;;;;;;;;4980470;28;20445;-71
2023/10/24 05:24:37;;;;;;;0.00;0.00;;;;;;;;;;4973231;28;20680;-70
2023/10/24 05:27:03;;;;;;;0.00;0.00;;;;;;;;;;4975280;28;20085;-70
2023/10/24 05:29:29;;;;;;;0.00;0.00;;;;;;;;;;4972337;28;20049;-70
2023/10/24 05:31:55;;;;;;;0.00;0.00;;;;;;;;;;4978744;28;20790;-70
2023/10/24 05:34:21;;;;;;;0.00;0.00;;;;;;;;;;4975016;28;20093;-72
2023/10/24 05:36:47;;;;;;;0.00;0.00;;;;;;;;;;4978999;28;20687;-68
2023/10/24 05:39:13;;;;;;;0.00;0.00;;;;;;;;;;4977445;28;20026;-69
2023/10/24 05:41:39;;;;;;;0.00;0.00;;;;;;;;;;4979027;28;20089;-69
2023/10/24 05:44:05;;;;;;;0.00;0.00;;;;;;;;;;4979245;28;20041;-69
2023/10/24 05:46:31;;;;;;;0.00;0.00;;;;;;;;;;4980587;28;20152;-69
2023/10/24 05:48:57;;;;;;;0.00;0.00;;;;;;;;;;4978301;28;20042;-70
2023/10/24 05:51:24;;;;;;;0.00;0.00;;;;;;;;;;4978088;28;20132;-69
2023/10/24 05:53:50;;;;;;;0.00;0.00;;;;;;;;;;4977717;28;20109;-69
2023/10/24 05:56:16;;;;;;;0.00;0.00;;;;;;;;;;4979870;28;20566;-69
2023/10/24 05:58:42;;;;;;;0.00;0.00;;;;;;;;;;4981202;28;20034;-69
2023/10/24 06:01:08;;;;;;;0.00;0.00;;;;;;;;;;4980622;28;20419;-68
2023/10/24 06:03:34;;;;;;;0.00;0.00;;;;;;;;;;4983173;28;20058;-69
2023/10/24 06:06:00;;;;;;;0.00;0.00;;;;;;;;;;4982204;28;20491;-69
2023/10/24 06:08:26;;;;;;;0.00;0.00;;;;;;;;;;4991818;28;20044;-69
2023/10/24 06:10:56;;;;;;;0.00;0.00;;;;;;;;;;4981718;28;20399;-69
2023/10/24 06:13:22;;;;;;;0.00;0.00;;;;;;;;;;4982122;28;20534;-69
2023/10/24 06:15:48;;;;;;;0.00;0.00;;;;;;;;;;4979380;28;20034;-69
2023/10/24 06:18:14;;;;;;;0.00;0.00;;;;;;;;;;4977970;28;20096;-69
2023/10/24 06:20:40;;;;;;;0.00;0.00;;;;;;;;;;4978470;28;20042;-69
2023/10/24 06:23:07;;;;;;;0.00;0.00;;;;;;;;;;4978044;28;20042;-69
2023/10/24 06:25:39;;;;;;;0.00;0.00;;;;;;;;;;4981395;28;20189;-69
2023/10/24 06:28:05;;;;;;;0.00;0.00;;;;;;;;;;4978619;28;20047;-69
2023/10/24 06:30:32;;;;;;;0.00;0.00;;;;;;;;;;4975474;28;20069;-68
2023/10/24 06:32:58;;;;;;;0.00;0.00;;;;;;;;;;4976483;28;20038;-69
2023/10/24 06:35:24;;;;;;;0.00;0.00;;;;;;;;;;4981755;28;20050;-69
2023/10/24 06:37:50;;;;;;;0.00;0.00;;;;;;;;;;4982390;28;20041;-69
2023/10/24 06:40:16;;;;;;;0.00;0.00;;;;;;;;;;4977301;28;20052;-69
2023/10/24 06:42:42;;;;;;;0.00;0.00;;;;;;;;;;4982295;28;20038;-68
2023/10/24 06:45:10;;;;;;;0.00;0.00;;;;;;;;;;4975287;28;20070;-69
2023/10/24 06:47:36;;;;;;;0.00;0.00;;;;;;;;;;4978524;28;20149;-71
2023/10/24 06:50:03;;;;;;;0.00;0.00;;;;;;;;;;4978296;28;20048;-72
2023/10/24 06:52:29;;;;;;;0.00;0.00;;;;;;;;;;4976450;28;20034;-72
2023/10/24 06:54:54;;;;;;;0.00;0.00;;;;;;;;;;4972602;28;20713;-72
2023/10/24 06:57:21;;;;;;;0.00;0.00;;;;;;;;;;4980947;28;20034;-72
2023/10/24 06:59:46;;;;;;;0.00;0.00;;;;;;;;;;4977408;28;20034;-71
2023/10/24 07:02:12;;;;;;;0.00;0.00;;;;;;;;;;4977742;28;20069;-72
2023/10/24 07:04:38;;;;;;;0.00;0.00;;;;;;;;;;4978508;28;20044;-72
2023/10/24 07:07:04;;;;;;;0.00;0.00;;;;;;;;;;4978103;28;20069;-72
2023/10/24 07:09:30;;;;;;;0.00;0.00;;;;;;;;;;4978386;28;20116;-72
2023/10/24 07:11:56;;;;;;;0.00;0.00;;;;;;;;;;4978232;28;20026;-72
2023/10/24 07:14:22;;;;;;;0.00;0.00;;;;;;;;;;4976522;28;20041;-72
2023/10/24 07:16:51;;;;;;;0.00;0.00;;;;;;;;;;4977896;28;20066;-72
2023/10/24 07:19:17;;;;;;;0.00;0.00;;;;;;;;;;4977356;28;20041;-71
2023/10/24 07:21:42;;;;;;;0.00;0.00;;;;;;;;;;4978335;28;20038;-71
2023/10/24 07:24:09;;;;;;;0.00;0.00;;;;;;;;;;4977128;28;20749;-71
2023/10/24 07:26:35;;;;;;;0.00;0.00;;;;;;;;;;4979334;28;20117;-69
2023/10/24 07:29:01;;;;;;;0.00;0.00;;;;;;;;;;4975049;28;20046;-69
2023/10/24 07:31:27;;;;;;;0.00;0.00;;;;;;;;;;4971513;28;20116;-69
2023/10/24 07:33:53;;;;;;;0.00;0.00;;;;;;;;;;4992140;28;20052;-69
2023/10/24 07:36:19;;;;;;;0.00;0.00;;;;;;;;;;4976659;28;20846;-69
2023/10/24 07:38:45;;;;;;;0.00;0.00;;;;;;;;;;4976148;28;20132;-69
2023/10/24 07:41:11;;;;;;;0.00;0.00;;;;;;;;;;4976753;28;20500;-69
2023/10/24 07:43:37;;;;;;;0.00;0.00;;;;;;;;;;4978284;28;20136;-69
2023/10/24 07:46:03;;;;;;;0.00;0.00;;;;;;;;;;4977780;28;20065;-69
2023/10/24 07:48:30;;;;;;;0.00;0.00;;;;;;;;;;4973991;28;20398;-69
2023/10/24 07:50:57;;;;;;;0.00;0.00;;;;;;;;;;4977083;28;20845;-69
2023/10/24 07:53:24;;;;;;;0.00;0.00;;;;;;;;;;4977474;28;20483;-69
2023/10/24 07:55:50;;;;;;;0.00;0.00;;;;;;;;;;4977460;28;20045;-69
2023/10/24 07:58:16;;;;;;;0.00;0.00;;;;;;;;;;4983603;28;20438;-69
2023/10/24 08:00:45;;;;;;;0.00;0.00;;;;;;;;;;4976123;28;20045;-69
2023/10/24 08:03:13;;;;;;;0.00;0.00;;;;;;;;;;4983401;28;20370;-69
2023/10/24 08:05:39;;;;;;;0.00;0.00;;;;;;;;;;4974847;28;20041;-69
2023/10/24 08:08:05;;;;;;;0.00;0.00;;;;;;;;;;4975625;28;20050;-69
2023/10/24 08:10:32;;;;;;;0.00;0.00;;;;;;;;;;4984432;28;20030;-68
2023/10/24 08:12:58;;;;;;;0.00;0.00;;;;;;;;;;4976902;28;20038;-69
2023/10/24 08:15:24;;;;;;;0.00;0.00;;;;;;;;;;4990933;28;20042;-69
2023/10/24 08:17:51;;;;;;;0.00;0.00;;;;;;;;;;4978183;28;20050;-69
2023/10/24 08:20:17;;;;;;;0.00;0.00;;;;;;;;;;4974110;28;20038;-69
2023/10/24 08:22:43;;;;;;;0.00;0.00;;;;;;;;;;4976905;28;20038;-69
2023/10/24 08:25:09;;;;;;;0.00;0.00;;;;;;;;;;4974134;28;20042;-66
2023/10/24 08:27:35;;;;;;;0.00;0.00;;;;;;;;;;4980115;28;20152;-69
2023/10/24 08:30:03;;;;;;;0.00;0.00;;;;;;;;;;4971712;28;20038;-69
2023/10/24 08:32:29;;;;;;;0.00;0.00;;;;;;;;;;4974763;28;20061;-69
2023/10/24 08:34:55;;;;;;;0.00;0.00;;;;;;;;;;4974568;28;20046;-69
2023/10/24 08:37:22;;;;;;;0.00;0.00;;;;;;;;;;4974111;28;20042;-69
2023/10/24 08:39:48;;;;;;;0.00;0.00;;;;;;;;;;4977503;28;20040;-69
2023/10/24 08:42:15;;;;;;;0.00;0.00;;;;;;;;;;4976403;28;20065;-69
2023/10/24 08:44:41;;;;;;;0.00;0.00;;;;;;;;;;4971569;28;20553;-69
2023/10/24 08:47:08;;;;;;;0.00;0.00;;;;;;;;;;4975701;28;20530;-69
2023/10/24 08:49:38;;;;;;;0.00;0.00;;;;;;;;;;4976589;28;20148;-68
2023/10/24 08:52:07;;;;;;;0.00;0.00;;;;;;;;;;4975539;28;20756;-68
2023/10/24 08:54:33;;;;;;;0.00;0.00;;;;;;;;;;4975381;28;20061;-69
2023/10/24 08:57:01;;;;;;;0.00;0.00;;;;;;;;;;4974588;28;20046;-69
2023/10/24 08:59:29;;;;;;;0.00;0.00;;;;;;;;;;4975480;28;20937;-69
2023/10/24 09:01:55;;;;;;;0.00;0.00;;;;;;;;;;4975436;28;20034;-69
2023/10/24 09:04:22;;;;;;;0.00;0.00;;;;;;;;;;4982325;28;20113;-69
2023/10/24 09:06:48;;;;;;;0.00;0.00;;;;;;;;;;4973717;28;20145;-69
2023/10/24 09:09:15;;;;;;;0.00;0.00;;;;;;;;;;4975982;28;20098;-69
2023/10/24 09:12:00;;;;;;;0.00;0.00;;;;;;;;;;4974696;28;20030;-69
2023/10/24 09:14:30;;;;;;;0.00;0.00;;;;;;;;;;4990961;28;20051;-69
2023/10/24 09:17:00;;;;;;;0.00;0.00;;;;;;;;;;4992885;28;20041;-69
2023/10/24 09:19:30;;;;;;;0.00;0.00;;;;;;;;;;4973648;28;20038;-69
2023/10/24 09:21:59;;;;;;;0.00;0.00;;;;;;;;;;4972773;28;20072;-69
2023/10/24 09:24:26;;;;;;;0.00;0.00;;;;;;;;;;4982734;28;20045;-69
2023/10/24 09:26:54;;;;;;;0.00;0.00;;;;;;;;;;4987612;28;20538;-69
2023/10/24 09:29:20;;;;;;;0.00;0.00;;;;;;;;;;4977218;28;20108;-69
2023/10/24 09:31:47;;;;;;;0.00;0.00;;;;;;;;;;4980163;28;20490;-69
2023/10/24 09:34:13;;;;;;;0.00;0.00;;;;;;;;;;4978151;28;20718;-69
2023/10/24 09:36:39;;;;;;;0.00;0.00;;;;;;;;;;4980232;28;20042;-69
2023/10/24 09:39:05;;;;;;;0.00;0.00;;;;;;;;;;4978109;28;20100;-68
2023/10/24 09:41:31;;;;;;;0.00;0.00;;;;;;;;;;4981032;28;20129;-68
2023/10/24 09:44:01;;;;;;;0.00;0.00;;;;;;;;;;4978693;28;20553;-69
2023/10/24 09:46:28;;;;;;;0.00;0.00;;;;;;;;;;4977706;28;20108;-69
2023/10/24 09:48:55;;;;;;;0.00;0.00;;;;;;;;;;4978654;28;20093;-69
2023/10/24 09:51:22;;;;;;;0.00;0.00;;;;;;;;;;4975536;28;20042;-69
2023/10/24 09:53:48;;;;;;;0.00;0.00;;;;;;;;;;4978827;28;20088;-68
2023/10/24 09:56:15;;;;;;;0.00;0.00;;;;;;;;;;4978766;28;20042;-68
2023/10/24 09:58:42;;;;;;;0.00;0.00;;;;;;;;;;4980292;28;20061;-69
2023/10/24 10:01:10;;;;;;;0.00;0.00;;;;;;;;;;4977770;28;20038;-68
2023/10/24 10:03:37;;;;;;;0.00;0.00;;;;;;;;;;4977974;28;20049;-68
2023/10/24 10:06:08;;;;;;;0.00;0.00;;;;;;;;;;4977856;28;20049;-68
2023/10/24 10:08:36;;;;;;;0.00;0.00;;;;;;;;;;4976245;28;20034;-68
2023/10/24 10:11:03;;;;;;;0.00;0.00;;;;;;;;;;4977855;28;20451;-68
2023/10/24 10:13:33;;;;;;;0.00;0.00;;;;;;;;;;4986037;28;20045;-68
2023/10/24 10:16:11;;;;;;;0.00;0.00;;;;;;;;;;4979357;28;20536;-68
2023/10/24 10:18:56;;;;;;;0.00;0.00;;;;;;;;;;4983086;28;20109;-68
2023/10/24 10:21:30;;;;;;;0.00;0.00;;;;;;;;;;4975847;28;20082;-68
2023/10/24 10:23:59;;;;;;;0.00;0.00;;;;;;;;;;4977372;28;20043;-69
2023/10/24 10:26:43;;;;;;;0.00;0.00;;;;;;;;;;4988818;28;20085;-69
2023/10/24 10:29:18;;;;;;;0.00;0.00;;;;;;;;;;4974507;28;20120;-69
2023/10/24 10:31:56;;;;;;;0.00;0.00;;;;;;;;;;4976927;28;20045;-69
2023/10/24 10:34:35;;;;;;;0.00;0.00;;;;;;;;;;4977943;28;20093;-69
2023/10/24 10:37:01;;;;;;;0.00;0.00;;;;;;;;;;4975719;28;20093;-68
2023/10/24 10:39:27;;;;;;;0.00;0.00;;;;;;;;;;4975142;28;20034;-68
2023/10/24 10:41:52;;;;;;;0.00;0.00;;;;;;;;;;4977793;28;20052;-68
2023/10/24 10:44:44;;;;;;;0.00;0.00;;;;;;;;;;4976530;28;20069;-68
2023/10/24 10:47:17;;;;;;;0.00;0.00;;;;;;;;;;4968616;28;20277;-68
2023/10/24 10:49:45;;;;;;;0.00;0.00;;;;;;;;;;4975577;28;20116;-68
2023/10/24 10:52:32;;;;;;;0.00;0.00;;;;;;;;;;4976783;28;20058;-68
2023/10/24 10:55:05;;;;;;;0.00;0.00;;;;;;;;;;4963241;28;20038;-69
2023/10/24 10:57:37;;;;;;;0.00;0.00;;;;;;;;;;4981389;28;20713;-69
2023/10/24 11:00:06;;;;;;;0.00;0.00;;;;;;;;;;4976441;28;20039;-69
2023/10/24 11:02:51;;;;;;;0.00;0.00;;;;;;;;;;4977917;28;20486;-69
2023/10/24 11:05:47;;;;;;;0.00;0.00;;;;;;;;;;4977759;28;20040;-69
2023/10/24 11:08:18;;;;;;;0.00;0.00;;;;;;;;;;4968891;28;20062;-69
2023/10/24 11:10:59;;;;;;;0.00;0.00;;;;;;;;;;4975459;28;20065;-69
2023/10/24 11:13:32;;;;;;;0.00;0.00;;;;;;;;;;4975467;28;20572;-69
2023/10/24 11:16:00;;;;;;;0.00;0.00;;;;;;;;;;4976682;28;20042;-69
2023/10/24 11:18:26;;;;;;;0.00;0.00;;;;;;;;;;4972844;28;20034;-69
2023/10/24 11:20:53;;;;;;;0.00;0.00;;;;;;;;;;4975734;28;20490;-69
2023/10/24 11:23:19;;;;;;;0.00;0.00;;;;;;;;;;4977016;28;20173;-69
2023/10/24 11:25:45;;;;;;;0.00;0.00;;;;;;;;;;4978884;28;20469;-69
2023/10/24 11:28:11;;;;;;;0.00;0.00;;;;;;;;;;4976607;28;20128;-69
2023/10/24 11:30:37;;;;;;;0.00;0.00;;;;;;;;;;4975783;28;20509;-69
2023/10/24 11:33:03;;;;;;;0.00;0.00;;;;;;;;;;4978294;28;20108;-69
2023/10/24 11:35:29;;;;;;;0.00;0.00;;;;;;;;;;4978585;28;20843;-69
2023/10/24 11:37:56;;;;;;;0.00;0.00;;;;;;;;;;4977834;28;20045;-69
2023/10/24 11:40:22;;;;;;;0.00;0.00;;;;;;;;;;4978135;28;20115;-69
2023/10/24 11:42:48;;;;;;;0.00;0.00;;;;;;;;;;4973060;28;20034;-69
2023/10/24 11:45:14;;;;;;;0.00;0.00;;;;;;;;;;4978088;28;20096;-68
2023/10/24 11:47:40;;;;;;;0.00;0.00;;;;;;;;;;4976430;28;20042;-68
2023/10/24 11:50:06;;;;;;;0.00;0.00;;;;;;;;;;4991982;28;20034;-68
2023/10/24 11:52:32;;;;;;;0.00;0.00;;;;;;;;;;4976706;28;20553;-68
2023/10/24 11:54:58;;;;;;;0.00;0.00;;;;;;;;;;4970976;28;20050;-68
2023/10/24 11:57:25;;;;;;;0.00;0.00;;;;;;;;;;4975995;28;20490;-68
2023/10/24 11:59:52;;;;;;;0.00;0.00;;;;;;;;;;4977398;28;20649;-68
2023/10/24 12:02:18;;;;;;;0.00;0.00;;;;;;;;;;4976099;28;20038;-68
2023/10/24 12:04:50;;;;;;;0.00;0.00;;;;;;;;;;4980885;28;20042;-69
2023/10/24 12:07:17;;;;;;;0.00;0.00;;;;;;;;;;4974009;28;20418;-69
2023/10/24 12:09:43;;;;;;;0.00;0.00;;;;;;;;;;4977437;28;20381;-69
2023/10/24 12:12:11;;;;;;;0.00;0.00;;;;;;;;;;4975083;28;20504;-69
2023/10/24 12:14:38;;;;;;;0.00;0.00;;;;;;;;;;4977516;28;20050;-68
2023/10/24 12:17:04;;;;;;;0.00;0.00;;;;;;;;;;4978124;28;20106;-69
2023/10/24 12:19:30;;;;;;;0.00;0.00;;;;;;;;;;4979937;28;20038;-67
2023/10/24 12:21:56;;;;;;;0.00;0.00;;;;;;;;;;4980822;28;20379;-68
2023/10/24 12:24:22;;;;;;;0.00;0.00;;;;;;;;;;4978706;28;20362;-68
2023/10/24 12:26:48;;;;;;;0.00;0.00;;;;;;;;;;4977644;28;20045;-69
2023/10/24 12:29:14;;;;;;;0.00;0.00;;;;;;;;;;4975079;28;20054;-68
2023/10/24 12:31:40;;;;;;;0.00;0.00;;;;;;;;;;4977204;28;20042;-68
2023/10/24 12:34:10;;;;;;;0.00;0.00;;;;;;;;;;4979302;28;20042;-69
2023/10/24 12:36:36;;;;;;;0.00;0.00;;;;;;;;;;4976727;28;20481;-68
2023/10/24 12:39:02;;;;;;;0.00;0.00;;;;;;;;;;4974236;28;20049;-69
2023/10/24 12:41:28;;;;;;;0.00;0.00;;;;;;;;;;4977227;28;20038;-69
2023/10/24 12:43:54;;;;;;;0.00;0.00;;;;;;;;;;4977124;28;20039;-69
2023/10/24 12:46:20;;;;;;;0.00;0.00;;;;;;;;;;4974819;28;20414;-68
2023/10/24 12:48:46;;;;;;;0.00;0.00;;;;;;;;;;4976192;28;20034;-68
2023/10/24 12:51:12;;;;;;;0.00;0.00;;;;;;;;;;4973401;28;20048;-68
2023/10/24 12:53:39;;;;;;;0.00;0.00;;;;;;;;;;4952004;28;20607;-68
2023/10/24 12:56:06;;;;;;;0.00;0.00;;;;;;;;;;4974650;28;20795;-65
2023/10/24 12:58:33;;;;;;;0.00;0.00;;;;;;;;;;4976997;28;20053;-68
2023/10/24 13:00:59;;;;;;;0.00;0.00;;;;;;;;;;4977155;28;20038;-68
2023/10/24 13:03:25;;;;;;;0.00;0.00;;;;;;;;;;4977260;28;20042;-68
2023/10/24 13:05:51;;;;;;;0.00;0.00;;;;;;;;;;4974505;28;20422;-68
2023/10/24 13:08:18;;;;;;;0.00;0.00;;;;;;;;;;4978198;28;20045;-68
2023/10/24 13:10:44;;;;;;;0.00;0.00;;;;;;;;;;4979428;28;20046;-67
2023/10/24 13:13:10;;;;;;;0.00;0.00;;;;;;;;;;4980319;28;20491;-69
2023/10/24 13:15:36;;;;;;;0.00;0.00;;;;;;;;;;4978937;28;20043;-68
2023/10/24 13:18:02;;;;;;;0.00;0.00;;;;;;;;;;4980908;28;20072;-68
2023/10/24 13:20:28;;;;;;;0.00;0.00;;;;;;;;;;4968049;28;20101;-68
2023/10/24 13:22:54;;;;;;;0.00;0.00;;;;;;;;;;4970724;28;20046;-69
2023/10/24 13:25:20;;;;;;;0.00;0.00;;;;;;;;;;4980131;28;20041;-69
2023/10/24 13:27:46;;;;;;;0.00;0.00;;;;;;;;;;4980025;28;20980;-69
2023/10/24 13:30:13;;;;;;;0.00;0.00;;;;;;;;;;4973919;28;20108;-69
2023/10/24 13:32:39;;;;;;;0.00;0.00;;;;;;;;;;4987020;28;20080;-69
2023/10/24 13:35:05;;;;;;;0.00;0.00;;;;;;;;;;4978496;28;20099;-68
2023/10/24 13:37:31;;;;;;;0.00;0.00;;;;;;;;;;4975383;28;20145;-69
2023/10/24 13:39:57;;;;;;;0.00;0.00;;;;;;;;;;4983421;28;20042;-69
2023/10/24 13:42:23;;;;;;;0.00;0.00;;;;;;;;;;4978434;28;20105;-68
2023/10/24 13:44:49;;;;;;;0.00;0.00;;;;;;;;;;4980280;28;20089;-69
2023/10/24 13:47:15;;;;;;;0.00;0.00;;;;;;;;;;4981486;28;20601;-68
2023/10/24 13:49:41;;;;;;;0.00;0.00;;;;;;;;;;4981017;28;20026;-69
2023/10/24 13:52:08;;;;;;;0.00;0.00;;;;;;;;;;4969738;28;20483;-69
2023/10/24 13:54:34;;;;;;;0.00;0.00;;;;;;;;;;4972772;28;20034;-69
2023/10/24 13:57:00;;;;;;;0.00;0.00;;;;;;;;;;4978953;28;20050;-70
2023/10/24 13:59:26;;;;;;;0.00;0.00;;;;;;;;;;4972411;28;20040;-70
2023/10/24 14:01:52;;;;;;;0.00;0.00;;;;;;;;;;4979031;28;20041;-69
2023/10/24 14:04:18;;;;;;;0.00;0.00;;;;;;;;;;4979462;28;20754;-69
2023/10/24 14:06:44;;;;;;;0.00;0.00;;;;;;;;;;4979848;28;20046;-68
2023/10/24 14:09:13;;;;;;;0.00;0.00;;;;;;;;;;4965362;28;20132;-69
2023/10/24 14:11:39;;;;;;;0.00;0.00;;;;;;;;;;4979988;28;20658;-69
2023/10/24 14:14:05;;;;;;;0.00;0.00;;;;;;;;;;4979232;28;20046;-68
2023/10/24 14:16:32;;;;;;;0.00;0.00;;;;;;;;;;4978737;28;20510;-68
2023/10/24 14:19:17;;;;;;;0.00;0.00;;;;;;;;;;4977311;28;20100;-69
2023/10/24 14:21:43;;;;;;;0.00;0.00;;;;;;;;;;4986832;28;20042;-68
2023/10/24 14:24:09;;;;;;;0.00;0.00;;;;;;;;;;4976091;28;20045;-69
2023/10/24 14:26:35;;;;;;;0.00;0.00;;;;;;;;;;4995047;28;20847;-68
2023/10/24 14:29:01;;;;;;;0.00;0.00;;;;;;;;;;4978800;28;20046;-68
2023/10/24 14:31:27;;;;;;;0.00;0.00;;;;;;;;;;4987991;28;20514;-68
2023/10/24 14:33:55;;;;;;;0.00;0.00;;;;;;;;;;4994497;28;20054;-69
2023/10/24 14:36:20;;;;;;;0.00;0.00;;;;;;;;;;4977833;28;20474;-68
2023/10/24 14:38:46;;;;;;;0.00;0.00;;;;;;;;;;4977258;28;20038;-68
2023/10/24 14:41:12;;;;;;;0.00;0.00;;;;;;;;;;4980866;28;20485;-69
2023/10/24 14:43:38;;;;;;;0.00;0.00;;;;;;;;;;4979073;28;20182;-69